sensor_id;sensor_type;location;lat;lon;timestamp;pressure;altitude;pressure_sealevel;temperature;humidity
81865;BME280;71313;43.514;1.500;2024-03-22T00:01:50;100601.75;;;18.71;55.65
81865;BME280;71313;43.514;1.500;2024-03-22T00:04:19;100605.09;;;18.54;55.96
81865;BME280;71313;43.514;1.500;2024-03-22T00:06:46;100603.94;;;18.46;57.22
81865;BME280;71313;43.514;1.500;2024-03-22T00:09:12;100603.91;;;18.37;56.33
81865;BME280;71313;43.514;1.500;2024-03-22T00:11:39;100594.44;;;18.31;57.79
81865;BME280;71313;43.514;1.500;2024-03-22T00:14:07;100590.16;;;18.19;57.75
81865;BME280;71313;43.514;1.500;2024-03-22T00:16:33;100588.97;;;18.12;58.24
81865;BME280;71313;43.514;1.500;2024-03-22T00:18:58;100595.72;;;18.17;57.36
81865;BME280;71313;43.514;1.500;2024-03-22T00:21:24;100601.69;;;18.21;57.25
81865;BME280;71313;43.514;1.500;2024-03-22T00:23:49;100602.00;;;18.18;57.99
81865;BME280;71313;43.514;1.500;2024-03-22T00:26:16;100599.13;;;18.10;57.37
81865;BME280;71313;43.514;1.500;2024-03-22T00:28:43;100595.56;;;18.19;57.36
81865;BME280;71313;43.514;1.500;2024-03-22T00:31:09;100600.72;;;18.22;56.95
81865;BME280;71313;43.514;1.500;2024-03-22T00:33:35;100597.31;;;18.20;56.38
81865;BME280;71313;43.514;1.500;2024-03-22T00:36:01;100596.41;;;18.10;56.75
81865;BME280;71313;43.514;1.500;2024-03-22T00:38:26;100600.44;;;18.25;57.29
81865;BME280;71313;43.514;1.500;2024-03-22T00:40:52;100603.28;;;18.24;56.16
81865;BME280;71313;43.514;1.500;2024-03-22T00:43:17;100598.13;;;18.11;57.04
81865;BME280;71313;43.514;1.500;2024-03-22T00:45:43;100600.66;;;18.03;57.13
81865;BME280;71313;43.514;1.500;2024-03-22T00:48:10;100592.22;;;18.06;58.25
81865;BME280;71313;43.514;1.500;2024-03-22T00:50:35;100588.78;;;18.04;57.69
81865;BME280;71313;43.514;1.500;2024-03-22T00:53:01;100594.22;;;18.04;57.56
81865;BME280;71313;43.514;1.500;2024-03-22T00:55:28;100593.22;;;18.05;57.74
81865;BME280;71313;43.514;1.500;2024-03-22T00:57:54;100586.09;;;18.04;57.21
81865;BME280;71313;43.514;1.500;2024-03-22T01:00:19;100593.50;;;18.02;57.57
81865;BME280;71313;43.514;1.500;2024-03-22T01:02:45;100590.81;;;17.81;58.25
81865;BME280;71313;43.514;1.500;2024-03-22T01:05:10;100581.63;;;17.72;57.48
81865;BME280;71313;43.514;1.500;2024-03-22T01:07:37;100587.31;;;17.69;58.37
81865;BME280;71313;43.514;1.500;2024-03-22T01:10:06;100583.25;;;17.64;57.86
81865;BME280;71313;43.514;1.500;2024-03-22T01:12:31;100586.91;;;17.53;58.54
81865;BME280;71313;43.514;1.500;2024-03-22T01:14:57;100586.03;;;17.52;58.06
81865;BME280;71313;43.514;1.500;2024-03-22T01:17:23;100588.81;;;17.62;58.66
81865;BME280;71313;43.514;1.500;2024-03-22T01:19:48;100584.47;;;17.71;57.49
81865;BME280;71313;43.514;1.500;2024-03-22T01:22:17;100588.69;;;17.64;58.70
81865;BME280;71313;43.514;1.500;2024-03-22T01:24:43;100586.63;;;17.56;58.95
81865;BME280;71313;43.514;1.500;2024-03-22T01:27:08;100577.56;;;17.46;59.21
81865;BME280;71313;43.514;1.500;2024-03-22T01:29:35;100574.66;;;17.38;58.64
81865;BME280;71313;43.514;1.500;2024-03-22T01:32:02;100563.63;;;17.30;59.08
81865;BME280;71313;43.514;1.500;2024-03-22T01:34:28;100571.28;;;17.25;59.18
81865;BME280;71313;43.514;1.500;2024-03-22T01:36:53;100558.72;;;17.24;59.29
81865;BME280;71313;43.514;1.500;2024-03-22T01:39:21;100566.13;;;17.22;59.15
81865;BME280;71313;43.514;1.500;2024-03-22T01:41:50;100563.94;;;17.15;59.54
81865;BME280;71313;43.514;1.500;2024-03-22T01:44:16;100563.72;;;17.07;59.75
81865;BME280;71313;43.514;1.500;2024-03-22T01:46:42;100558.31;;;17.07;60.59
81865;BME280;71313;43.514;1.500;2024-03-22T01:49:10;100568.88;;;17.10;59.53
81865;BME280;71313;43.514;1.500;2024-03-22T01:51:37;100561.47;;;17.12;60.03
81865;BME280;71313;43.514;1.500;2024-03-22T01:54:03;100560.03;;;17.08;59.67
81865;BME280;71313;43.514;1.500;2024-03-22T01:56:29;100556.72;;;17.05;60.57
81865;BME280;71313;43.514;1.500;2024-03-22T01:58:56;100558.81;;;17.01;60.64
81865;BME280;71313;43.514;1.500;2024-03-22T02:01:21;100558.59;;;16.93;60.17
81865;BME280;71313;43.514;1.500;2024-03-22T02:03:48;100556.75;;;16.94;60.06
81865;BME280;71313;43.514;1.500;2024-03-22T02:06:13;100551.47;;;16.92;60.23
81865;BME280;71313;43.514;1.500;2024-03-22T02:08:40;100555.38;;;16.99;59.92
81865;BME280;71313;43.514;1.500;2024-03-22T02:11:07;100546.78;;;16.94;60.24
81865;BME280;71313;43.514;1.500;2024-03-22T02:13:33;100539.38;;;16.96;59.78
81865;BME280;71313;43.514;1.500;2024-03-22T02:16:02;100541.69;;;17.01;60.07
81865;BME280;71313;43.514;1.500;2024-03-22T02:18:55;100531.44;;;17.04;59.62
81865;BME280;71313;43.514;1.500;2024-03-22T02:21:20;100531.03;;;16.88;59.82
81865;BME280;71313;43.514;1.500;2024-03-22T02:23:45;100531.63;;;16.92;60.31
81865;BME280;71313;43.514;1.500;2024-03-22T02:26:12;100520.19;;;16.88;59.73
81865;BME280;71313;43.514;1.500;2024-03-22T02:28:39;100524.16;;;16.84;60.31
81865;BME280;71313;43.514;1.500;2024-03-22T02:31:05;100522.16;;;16.86;60.44
81865;BME280;71313;43.514;1.500;2024-03-22T02:33:32;100518.81;;;16.94;59.79
81865;BME280;71313;43.514;1.500;2024-03-22T02:35:58;100508.09;;;16.92;59.65
81865;BME280;71313;43.514;1.500;2024-03-22T02:38:25;100499.50;;;16.87;59.26
81865;BME280;71313;43.514;1.500;2024-03-22T02:40:52;100494.81;;;16.89;59.66
81865;BME280;71313;43.514;1.500;2024-03-22T02:43:19;100488.44;;;16.79;59.75
81865;BME280;71313;43.514;1.500;2024-03-22T02:45:46;100494.38;;;16.73;59.95
81865;BME280;71313;43.514;1.500;2024-03-22T02:48:12;100484.94;;;16.67;61.11
81865;BME280;71313;43.514;1.500;2024-03-22T02:50:38;100481.09;;;16.70;60.83
81865;BME280;71313;43.514;1.500;2024-03-22T02:53:04;100477.13;;;16.74;59.97
81865;BME280;71313;43.514;1.500;2024-03-22T02:55:40;100477.88;;;16.76;59.89
81865;BME280;71313;43.514;1.500;2024-03-22T02:58:07;100478.78;;;16.65;60.12
81865;BME280;71313;43.514;1.500;2024-03-22T03:00:38;100479.41;;;16.58;60.45
81865;BME280;71313;43.514;1.500;2024-03-22T03:03:04;100477.94;;;16.53;61.07
81865;BME280;71313;43.514;1.500;2024-03-22T03:05:30;100471.91;;;16.50;60.87
81865;BME280;71313;43.514;1.500;2024-03-22T03:07:55;100468.59;;;16.46;59.95
81865;BME280;71313;43.514;1.500;2024-03-22T03:10:20;100457.03;;;16.44;60.87
81865;BME280;71313;43.514;1.500;2024-03-22T03:12:46;100457.03;;;16.44;60.42
81865;BME280;71313;43.514;1.500;2024-03-22T03:15:13;100456.03;;;16.45;61.09
81865;BME280;71313;43.514;1.500;2024-03-22T03:17:40;100454.31;;;16.44;60.90
81865;BME280;71313;43.514;1.500;2024-03-22T03:20:06;100453.84;;;16.39;60.82
81865;BME280;71313;43.514;1.500;2024-03-22T03:22:36;100444.75;;;16.40;60.14
81865;BME280;71313;43.514;1.500;2024-03-22T03:25:03;100443.88;;;16.40;60.94
81865;BME280;71313;43.514;1.500;2024-03-22T03:27:30;100451.41;;;16.36;60.49
81865;BME280;71313;43.514;1.500;2024-03-22T03:29:55;100457.94;;;16.34;60.47
81865;BME280;71313;43.514;1.500;2024-03-22T03:32:21;100455.81;;;16.37;61.14
81865;BME280;71313;43.514;1.500;2024-03-22T03:34:47;100454.88;;;16.27;60.44
81865;BME280;71313;43.514;1.500;2024-03-22T03:37:15;100456.34;;;16.31;60.40
81865;BME280;71313;43.514;1.500;2024-03-22T03:39:40;100447.22;;;16.32;59.92
81865;BME280;71313;43.514;1.500;2024-03-22T03:42:06;100449.72;;;16.24;60.79
81865;BME280;71313;43.514;1.500;2024-03-22T03:44:32;100457.09;;;16.22;60.05
81865;BME280;71313;43.514;1.500;2024-03-22T03:46:57;100461.56;;;16.12;60.86
81865;BME280;71313;43.514;1.500;2024-03-22T03:49:22;100454.94;;;16.05;60.97
81865;BME280;71313;43.514;1.500;2024-03-22T03:51:48;100459.38;;;16.06;61.08
81865;BME280;71313;43.514;1.500;2024-03-22T03:54:14;100457.88;;;16.13;59.89
81865;BME280;71313;43.514;1.500;2024-03-22T03:56:39;100458.72;;;16.13;60.35
81865;BME280;71313;43.514;1.500;2024-03-22T03:59:05;100463.78;;;16.07;60.50
81865;BME280;71313;43.514;1.500;2024-03-22T04:01:32;100452.22;;;16.05;60.56
81865;BME280;71313;43.514;1.500;2024-03-22T04:03:57;100463.03;;;16.16;60.34
81865;BME280;71313;43.514;1.500;2024-03-22T04:06:23;100463.25;;;16.24;60.18
81865;BME280;71313;43.514;1.500;2024-03-22T04:08:48;100465.72;;;16.27;59.13
81865;BME280;71313;43.514;1.500;2024-03-22T04:11:14;100470.06;;;16.07;60.57
81865;BME280;71313;43.514;1.500;2024-03-22T04:13:41;100466.13;;;16.11;60.05
81865;BME280;71313;43.514;1.500;2024-03-22T04:16:07;100464.66;;;16.07;59.65
81865;BME280;71313;43.514;1.500;2024-03-22T04:18:32;100470.47;;;15.91;60.23
81865;BME280;71313;43.514;1.500;2024-03-22T04:20:59;100476.88;;;15.79;61.48
81865;BME280;71313;43.514;1.500;2024-03-22T04:23:24;100472.69;;;15.75;60.79
81865;BME280;71313;43.514;1.500;2024-03-22T04:25:57;100473.66;;;15.74;60.86
81865;BME280;71313;43.514;1.500;2024-03-22T04:28:24;100474.91;;;15.70;61.13
81865;BME280;71313;43.514;1.500;2024-03-22T04:31:08;100469.00;;;15.65;60.90
81865;BME280;71313;43.514;1.500;2024-03-22T04:33:36;100481.22;;;15.60;60.77
81865;BME280;71313;43.514;1.500;2024-03-22T04:36:02;100482.16;;;15.47;60.76
81865;BME280;71313;43.514;1.500;2024-03-22T04:38:28;100481.28;;;15.47;61.28
81865;BME280;71313;43.514;1.500;2024-03-22T04:40:54;100478.72;;;15.45;60.71
81865;BME280;71313;43.514;1.500;2024-03-22T04:43:22;100481.28;;;15.47;61.59
81865;BME280;71313;43.514;1.500;2024-03-22T04:45:49;100480.31;;;15.37;61.66
81865;BME280;71313;43.514;1.500;2024-03-22T04:48:18;100485.09;;;15.33;61.31
81865;BME280;71313;43.514;1.500;2024-03-22T04:50:45;100476.13;;;15.44;61.30
81865;BME280;71313;43.514;1.500;2024-03-22T04:53:11;100482.53;;;15.54;60.34
81865;BME280;71313;43.514;1.500;2024-03-22T04:55:36;100484.25;;;15.55;61.00
81865;BME280;71313;43.514;1.500;2024-03-22T04:58:03;100482.53;;;15.54;61.07
81865;BME280;71313;43.514;1.500;2024-03-22T05:00:28;100470.22;;;15.39;61.12
81865;BME280;71313;43.514;1.500;2024-03-22T05:02:54;100475.00;;;15.24;62.33
81865;BME280;71313;43.514;1.500;2024-03-22T05:05:20;100465.78;;;15.15;62.64
81865;BME280;71313;43.514;1.500;2024-03-22T05:07:45;100470.88;;;14.96;63.06
81865;BME280;71313;43.514;1.500;2024-03-22T05:10:12;100467.44;;;14.94;63.69
81865;BME280;71313;43.514;1.500;2024-03-22T05:12:37;100472.63;;;14.97;63.92
81865;BME280;71313;43.514;1.500;2024-03-22T05:15:04;100460.59;;;15.01;63.50
81865;BME280;71313;43.514;1.500;2024-03-22T05:17:30;100466.09;;;15.00;63.72
81865;BME280;71313;43.514;1.500;2024-03-22T05:19:57;100451.47;;;14.91;64.28
81865;BME280;71313;43.514;1.500;2024-03-22T05:22:23;100452.09;;;14.94;64.49
81865;BME280;71313;43.514;1.500;2024-03-22T05:24:48;100455.66;;;14.95;64.46
81865;BME280;71313;43.514;1.500;2024-03-22T05:27:13;100448.19;;;14.99;64.17
81865;BME280;71313;43.514;1.500;2024-03-22T05:29:41;100451.00;;;14.97;64.02
81865;BME280;71313;43.514;1.500;2024-03-22T05:32:06;100450.75;;;15.00;63.97
81865;BME280;71313;43.514;1.500;2024-03-22T05:34:33;100441.78;;;15.00;64.38
81865;BME280;71313;43.514;1.500;2024-03-22T05:36:58;100437.75;;;15.05;63.81
81865;BME280;71313;43.514;1.500;2024-03-22T05:39:24;100441.94;;;15.09;63.49
81865;BME280;71313;43.514;1.500;2024-03-22T05:41:50;100442.91;;;15.08;63.31
81865;BME280;71313;43.514;1.500;2024-03-22T05:44:16;100437.75;;;15.05;63.43
81865;BME280;71313;43.514;1.500;2024-03-22T05:46:41;100436.03;;;15.04;63.83
81865;BME280;71313;43.514;1.500;2024-03-22T05:49:07;100435.16;;;15.04;63.82
81865;BME280;71313;43.514;1.500;2024-03-22T05:51:33;100434.31;;;15.03;63.95
81865;BME280;71313;43.514;1.500;2024-03-22T05:53:58;100423.25;;;15.06;64.50
81865;BME280;71313;43.514;1.500;2024-03-22T05:56:25;100427.66;;;14.96;63.95
81865;BME280;71313;43.514;1.500;2024-03-22T05:58:52;100421.50;;;14.83;65.02
81865;BME280;71313;43.514;1.500;2024-03-22T06:01:17;100423.22;;;14.84;65.27
81865;BME280;71313;43.514;1.500;2024-03-22T06:03:42;100423.94;;;14.86;64.64
81865;BME280;71313;43.514;1.500;2024-03-22T06:06:08;100424.84;;;14.98;64.38
81865;BME280;71313;43.514;1.500;2024-03-22T06:08:34;100424.72;;;15.10;64.34
81865;BME280;71313;43.514;1.500;2024-03-22T06:11:00;100424.25;;;15.16;63.79
81865;BME280;71313;43.514;1.500;2024-03-22T06:13:26;100425.84;;;15.19;64.08
81865;BME280;71313;43.514;1.500;2024-03-22T06:15:51;100431.13;;;15.20;63.05
81865;BME280;71313;43.514;1.500;2024-03-22T06:18:18;100422.28;;;15.18;63.39
81865;BME280;71313;43.514;1.500;2024-03-22T06:20:44;100420.06;;;15.12;63.20
81865;BME280;71313;43.514;1.500;2024-03-22T06:23:10;100420.56;;;15.17;62.48
81865;BME280;71313;43.514;1.500;2024-03-22T06:25:36;100421.31;;;15.19;62.86
81865;BME280;71313;43.514;1.500;2024-03-22T06:28:02;100421.41;;;15.18;62.80
81865;BME280;71313;43.514;1.500;2024-03-22T06:30:27;100425.94;;;15.06;63.19
81865;BME280;71313;43.514;1.500;2024-03-22T06:32:53;100424.59;;;15.01;63.40
81865;BME280;71313;43.514;1.500;2024-03-22T06:35:20;100425.06;;;14.94;63.32
81865;BME280;71313;43.514;1.500;2024-03-22T06:37:45;100430.84;;;15.01;63.08
81865;BME280;71313;43.514;1.500;2024-03-22T06:40:11;100435.91;;;15.06;63.36
81865;BME280;71313;43.514;1.500;2024-03-22T06:42:37;100443.66;;;15.10;62.47
81865;BME280;71313;43.514;1.500;2024-03-22T06:45:04;100446.34;;;15.10;63.50
81865;BME280;71313;43.514;1.500;2024-03-22T06:47:29;100444.88;;;15.06;63.58
81865;BME280;71313;43.514;1.500;2024-03-22T06:49:55;100451.25;;;15.05;63.72
81865;BME280;71313;43.514;1.500;2024-03-22T06:52:23;100452.00;;;15.07;63.57
81865;BME280;71313;43.514;1.500;2024-03-22T06:54:48;100453.25;;;15.14;63.03
81865;BME280;71313;43.514;1.500;2024-03-22T06:57:14;100457.91;;;15.12;62.99
81865;BME280;71313;43.514;1.500;2024-03-22T06:59:39;100452.75;;;15.09;63.51
81865;BME280;71313;43.514;1.500;2024-03-22T07:02:05;100453.47;;;15.11;63.55
81865;BME280;71313;43.514;1.500;2024-03-22T07:04:32;100456.56;;;15.18;63.11
81865;BME280;71313;43.514;1.500;2024-03-22T07:06:59;100449.06;;;15.21;64.07
81865;BME280;71313;43.514;1.500;2024-03-22T07:09:24;100442.69;;;15.22;64.46
81865;BME280;71313;43.514;1.500;2024-03-22T07:11:52;100446.75;;;15.28;64.14
81865;BME280;71313;43.514;1.500;2024-03-22T07:14:17;100442.94;;;15.31;64.45
81865;BME280;71313;43.514;1.500;2024-03-22T07:16:43;100445.88;;;15.39;64.17
81865;BME280;71313;43.514;1.500;2024-03-22T07:19:08;100436.78;;;15.40;64.80
81865;BME280;71313;43.514;1.500;2024-03-22T07:21:34;100435.19;;;15.48;64.43
81865;BME280;71313;43.514;1.500;2024-03-22T07:23:59;100442.47;;;15.59;64.03
81865;BME280;71313;43.514;1.500;2024-03-22T07:26:25;100443.69;;;15.66;64.16
81865;BME280;71313;43.514;1.500;2024-03-22T07:28:50;100439.50;;;15.73;64.54
81865;BME280;71313;43.514;1.500;2024-03-22T07:31:18;100441.44;;;15.82;64.28
81865;BME280;71313;43.514;1.500;2024-03-22T07:33:44;100440.94;;;15.88;64.97
81865;BME280;71313;43.514;1.500;2024-03-22T07:36:10;100448.31;;;15.98;64.59
81865;BME280;71313;43.514;1.500;2024-03-22T07:38:36;100446.94;;;16.03;64.51
81865;BME280;71313;43.514;1.500;2024-03-22T07:41:03;100455.66;;;16.07;64.74
81865;BME280;71313;43.514;1.500;2024-03-22T07:43:29;100452.72;;;16.10;64.78
81865;BME280;71313;43.514;1.500;2024-03-22T07:45:56;100455.91;;;16.15;65.02
81865;BME280;71313;43.514;1.500;2024-03-22T07:48:22;100453.66;;;16.20;65.62
81865;BME280;71313;43.514;1.500;2024-03-22T07:50:57;100457.59;;;16.27;65.66
81865;BME280;71313;43.514;1.500;2024-03-22T07:53:22;100458.06;;;16.32;65.88
81865;BME280;71313;43.514;1.500;2024-03-22T07:55:49;100450.28;;;16.39;65.60
81865;BME280;71313;43.514;1.500;2024-03-22T07:58:14;100458.75;;;16.45;65.36
81865;BME280;71313;43.514;1.500;2024-03-22T08:00:40;100453.69;;;16.52;65.18
81865;BME280;71313;43.514;1.500;2024-03-22T08:03:06;100460.03;;;16.62;65.45
81865;BME280;71313;43.514;1.500;2024-03-22T08:05:31;100458.81;;;16.66;65.38
81865;BME280;71313;43.514;1.500;2024-03-22T08:07:56;100457.19;;;16.75;65.48
81865;BME280;71313;43.514;1.500;2024-03-22T08:10:22;100457.66;;;16.80;65.16
81865;BME280;71313;43.514;1.500;2024-03-22T08:12:48;100455.41;;;16.85;64.94
81865;BME280;71313;43.514;1.500;2024-03-22T08:15:14;100454.88;;;16.91;65.76
81865;BME280;71313;43.514;1.500;2024-03-22T08:17:40;100453.50;;;16.97;64.52
81865;BME280;71313;43.514;1.500;2024-03-22T08:20:06;100453.81;;;17.03;65.12
81865;BME280;71313;43.514;1.500;2024-03-22T08:22:31;100452.16;;;17.12;65.68
81865;BME280;71313;43.514;1.500;2024-03-22T08:24:57;100454.47;;;17.16;65.17
81865;BME280;71313;43.514;1.500;2024-03-22T08:27:24;100454.78;;;17.23;64.88
81865;BME280;71313;43.514;1.500;2024-03-22T08:29:49;100444.28;;;17.30;65.29
81865;BME280;71313;43.514;1.500;2024-03-22T08:32:15;100445.72;;;17.34;64.80
81865;BME280;71313;43.514;1.500;2024-03-22T08:34:42;100452.31;;;17.41;64.81
81865;BME280;71313;43.514;1.500;2024-03-22T08:37:07;100445.22;;;17.49;64.40
81865;BME280;71313;43.514;1.500;2024-03-22T08:39:34;100444.53;;;17.57;64.77
81865;BME280;71313;43.514;1.500;2024-03-22T08:42:00;100443.84;;;17.65;65.52
81865;BME280;71313;43.514;1.500;2024-03-22T08:44:25;100450.63;;;17.70;64.42
81865;BME280;71313;43.514;1.500;2024-03-22T08:46:51;100447.38;;;17.76;65.38
81865;BME280;71313;43.514;1.500;2024-03-22T08:49:18;100451.38;;;17.82;65.31
81865;BME280;71313;43.514;1.500;2024-03-22T08:51:46;100443.69;;;17.87;65.04
81865;BME280;71313;43.514;1.500;2024-03-22T08:54:13;100447.69;;;17.93;65.06
81865;BME280;71313;43.514;1.500;2024-03-22T08:56:38;100449.13;;;17.97;64.69
81865;BME280;71313;43.514;1.500;2024-03-22T08:59:06;100454.00;;;18.03;64.16
81865;BME280;71313;43.514;1.500;2024-03-22T09:01:31;100444.59;;;18.07;64.55
81865;BME280;71313;43.514;1.500;2024-03-22T09:03:57;100449.47;;;18.13;64.99
81865;BME280;71313;43.514;1.500;2024-03-22T09:06:23;100448.19;;;18.17;64.71
81865;BME280;71313;43.514;1.500;2024-03-22T09:08:48;100449.31;;;18.24;64.61
81865;BME280;71313;43.514;1.500;2024-03-22T09:11:14;100443.31;;;18.30;64.27
81865;BME280;71313;43.514;1.500;2024-03-22T09:13:40;100454.34;;;18.38;64.36
81865;BME280;71313;43.514;1.500;2024-03-22T09:16:06;100446.34;;;18.46;64.05
81865;BME280;71313;43.514;1.500;2024-03-22T09:18:31;100440.91;;;18.56;63.74
81865;BME280;71313;43.514;1.500;2024-03-22T09:20:58;100440.78;;;18.67;63.93
81865;BME280;71313;43.514;1.500;2024-03-22T09:23:23;100443.78;;;18.74;64.25
81865;BME280;71313;43.514;1.500;2024-03-22T09:25:49;100435.78;;;18.82;63.86
81865;BME280;71313;43.514;1.500;2024-03-22T09:28:15;100442.91;;;18.83;63.75
81865;BME280;71313;43.514;1.500;2024-03-22T09:30:40;100432.88;;;18.93;63.58
81865;BME280;71313;43.514;1.500;2024-03-22T09:33:06;100438.16;;;19.04;63.46
81865;BME280;71313;43.514;1.500;2024-03-22T09:35:33;100428.97;;;19.15;62.99
81865;BME280;71313;43.514;1.500;2024-03-22T09:37:59;100429.81;;;19.25;63.53
81865;BME280;71313;43.514;1.500;2024-03-22T09:40:26;100430.78;;;19.34;63.17
81865;BME280;71313;43.514;1.500;2024-03-22T09:42:53;100428.03;;;19.43;62.84
81865;BME280;71313;43.514;1.500;2024-03-22T09:45:18;100434.19;;;19.55;62.16
81865;BME280;71313;43.514;1.500;2024-03-22T09:47:48;100430.84;;;19.61;62.86
81865;BME280;71313;43.514;1.500;2024-03-22T09:50:14;100427.22;;;19.70;61.93
81865;BME280;71313;43.514;1.500;2024-03-22T09:52:41;100416.03;;;19.73;62.36
81865;BME280;71313;43.514;1.500;2024-03-22T09:55:08;100422.28;;;19.84;61.56
81865;BME280;71313;43.514;1.500;2024-03-22T09:57:38;100419.97;;;19.89;62.00
81865;BME280;71313;43.514;1.500;2024-03-22T10:00:07;100417.66;;;19.94;61.74
81865;BME280;71313;43.514;1.500;2024-03-22T10:02:34;100417.91;;;20.00;61.86
81865;BME280;71313;43.514;1.500;2024-03-22T10:04:59;100419.16;;;20.06;61.39
81865;BME280;71313;43.514;1.500;2024-03-22T10:07:25;100416.53;;;20.14;61.57
81865;BME280;71313;43.514;1.500;2024-03-22T10:10:09;100414.03;;;20.21;60.84
81865;BME280;71313;43.514;1.500;2024-03-22T10:12:35;100417.69;;;20.29;60.07
81865;BME280;71313;43.514;1.500;2024-03-22T10:15:01;100416.50;;;20.41;60.77
81865;BME280;71313;43.514;1.500;2024-03-22T10:17:28;100412.50;;;20.54;60.56
81865;BME280;71313;43.514;1.500;2024-03-22T10:19:55;100406.75;;;20.57;60.08
81865;BME280;71313;43.514;1.500;2024-03-22T10:22:21;100405.44;;;20.61;60.35
81865;BME280;71313;43.514;1.500;2024-03-22T10:24:46;100404.47;;;20.70;60.06
81865;BME280;71313;43.514;1.500;2024-03-22T10:27:13;100400.44;;;20.82;60.03
81865;BME280;71313;43.514;1.500;2024-03-22T10:29:39;100402.53;;;20.88;59.90
81865;BME280;71313;43.514;1.500;2024-03-22T10:32:05;100388.66;;;20.99;58.92
81865;BME280;71313;43.514;1.500;2024-03-22T10:34:32;100384.31;;;21.15;58.63
81865;BME280;71313;43.514;1.500;2024-03-22T10:37:00;100385.47;;;21.30;59.20
81865;BME280;71313;43.514;1.500;2024-03-22T10:39:26;100385.88;;;21.43;58.29
81865;BME280;71313;43.514;1.500;2024-03-22T10:41:52;100390.38;;;21.60;58.60
81865;BME280;71313;43.514;1.500;2024-03-22T10:44:18;100385.69;;;21.79;57.57
81865;BME280;71313;43.514;1.500;2024-03-22T10:46:48;100387.97;;;21.99;57.28
81865;BME280;71313;43.514;1.500;2024-03-22T10:49:18;100383.25;;;22.18;56.64
81865;BME280;71313;43.514;1.500;2024-03-22T10:51:54;100374.22;;;22.33;56.91
81865;BME280;71313;43.514;1.500;2024-03-22T10:54:27;100377.31;;;22.47;56.68
81865;BME280;71313;43.514;1.500;2024-03-22T10:56:57;100364.16;;;22.50;55.79
81865;BME280;71313;43.514;1.500;2024-03-22T10:59:22;100360.06;;;22.71;55.50
81865;BME280;71313;43.514;1.500;2024-03-22T11:01:51;100360.22;;;22.93;55.68
81865;BME280;71313;43.514;1.500;2024-03-22T11:04:21;100360.69;;;23.13;55.23
81865;BME280;71313;43.514;1.500;2024-03-22T11:06:50;100358.78;;;23.30;54.12
81865;BME280;71313;43.514;1.500;2024-03-22T11:09:23;100354.25;;;23.45;53.53
81865;BME280;71313;43.514;1.500;2024-03-22T11:11:51;100351.28;;;23.63;54.18
81865;BME280;71313;43.514;1.500;2024-03-22T11:14:17;100349.28;;;23.88;53.68
81865;BME280;71313;43.514;1.500;2024-03-22T11:16:44;100344.63;;;24.19;53.37
81865;BME280;71313;43.514;1.500;2024-03-22T11:19:12;100340.38;;;24.40;52.50
81865;BME280;71313;43.514;1.500;2024-03-22T11:21:37;100335.50;;;24.50;51.27
81865;BME280;71313;43.514;1.500;2024-03-22T11:24:04;100332.09;;;24.85;51.36
81865;BME280;71313;43.514;1.500;2024-03-22T11:26:30;100329.69;;;25.20;50.61
81865;BME280;71313;43.514;1.500;2024-03-22T11:28:55;100330.22;;;25.60;49.40
81865;BME280;71313;43.514;1.500;2024-03-22T11:31:20;100324.03;;;26.08;48.64
81865;BME280;71313;43.514;1.500;2024-03-22T11:33:51;100335.59;;;26.61;48.15
81865;BME280;71313;43.514;1.500;2024-03-22T11:36:18;100322.75;;;26.96;47.35
81865;BME280;71313;43.514;1.500;2024-03-22T11:38:44;100322.19;;;27.35;46.10
81865;BME280;71313;43.514;1.500;2024-03-22T11:41:10;100318.13;;;27.66;44.83
81865;BME280;71313;43.514;1.500;2024-03-22T11:43:38;100307.72;;;28.29;44.46
81865;BME280;71313;43.514;1.500;2024-03-22T11:46:04;100309.41;;;28.96;43.00
81865;BME280;71313;43.514;1.500;2024-03-22T11:48:29;100305.50;;;29.36;41.68
81865;BME280;71313;43.514;1.500;2024-03-22T11:50:55;100299.75;;;29.89;40.07
81865;BME280;71313;43.514;1.500;2024-03-22T11:53:21;100295.16;;;30.46;40.04
81865;BME280;71313;43.514;1.500;2024-03-22T11:55:49;100290.09;;;31.11;37.88
81865;BME280;71313;43.514;1.500;2024-03-22T11:58:20;100301.66;;;31.63;37.01
81865;BME280;71313;43.514;1.500;2024-03-22T12:00:45;100286.66;;;32.01;36.21
81865;BME280;71313;43.514;1.500;2024-03-22T12:03:10;100288.88;;;32.40;34.67
81865;BME280;71313;43.514;1.500;2024-03-22T12:05:40;100282.53;;;32.98;34.17
81865;BME280;71313;43.514;1.500;2024-03-22T12:08:05;100273.41;;;33.61;33.27
81865;BME280;71313;43.514;1.500;2024-03-22T12:10:31;100267.63;;;34.36;32.50
81865;BME280;71313;43.514;1.500;2024-03-22T12:12:57;100263.72;;;35.04;31.73
81865;BME280;71313;43.514;1.500;2024-03-22T12:15:24;100260.66;;;35.66;29.88
81865;BME280;71313;43.514;1.500;2024-03-22T12:17:52;100255.78;;;36.27;29.66
81865;BME280;71313;43.514;1.500;2024-03-22T12:20:18;100244.25;;;36.56;28.49
81865;BME280;71313;43.514;1.500;2024-03-22T12:22:48;100251.47;;;36.52;28.06
81865;BME280;71313;43.514;1.500;2024-03-22T12:25:16;100242.25;;;36.88;27.09
81865;BME280;71313;43.514;1.500;2024-03-22T12:27:42;100235.06;;;37.50;27.28
81865;BME280;71313;43.514;1.500;2024-03-22T12:30:08;100225.91;;;37.75;25.77
81865;BME280;71313;43.514;1.500;2024-03-22T12:32:37;100227.09;;;38.09;25.74
81865;BME280;71313;43.514;1.500;2024-03-22T12:35:02;100226.31;;;38.49;25.38
81865;BME280;71313;43.514;1.500;2024-03-22T12:37:30;100221.47;;;39.06;24.32
81865;BME280;71313;43.514;1.500;2024-03-22T12:39:56;100212.47;;;39.73;24.12
81865;BME280;71313;43.514;1.500;2024-03-22T12:42:21;100215.84;;;40.19;22.90
81865;BME280;71313;43.514;1.500;2024-03-22T12:44:47;100203.38;;;40.94;22.32
81865;BME280;71313;43.514;1.500;2024-03-22T12:47:18;100193.19;;;41.83;21.39